createdAt,value
2022-09-11T00:00:53.142Z,9.17
2022-09-11T00:03:21.418Z,8.73
2022-09-11T00:05:49.189Z,10.17
2022-09-11T00:08:21.291Z,8.43
2022-09-11T00:10:50.031Z,8.60
2022-09-11T00:13:21.200Z,8.70
2022-09-11T00:15:53.471Z,8.27
2022-09-11T00:18:22.576Z,9.97
2022-09-11T00:20:51.916Z,9.47
2022-09-11T00:23:22.967Z,8.37
2022-09-11T00:25:51.123Z,8.67
2022-09-11T00:28:21.464Z,8.27
2022-09-11T00:30:58.565Z,10.17
2022-09-11T00:33:27.327Z,8.50
2022-09-11T00:35:58.242Z,8.57
2022-09-11T00:38:28.340Z,9.03
2022-09-11T00:40:58.241Z,8.27
2022-09-11T00:43:26.992Z,8.17
2022-09-11T00:45:58.476Z,8.90
2022-09-11T00:48:29.986Z,11.60
2022-09-11T00:50:59.330Z,9.20
2022-09-11T00:53:31.919Z,9.40
2022-09-11T00:56:03.131Z,8.60
2022-09-11T00:58:34.669Z,8.43
2022-09-11T01:01:04.193Z,9.10
2022-09-11T01:03:33.196Z,8.70
2022-09-11T01:06:01.866Z,9.03
2022-09-11T01:08:32.088Z,9.43
2022-09-11T01:11:13.444Z,10.00
2022-09-11T01:13:48.775Z,8.10
2022-09-11T01:16:24.041Z,8.67
2022-09-11T01:19:01.002Z,10.67
2022-09-11T01:22:01.623Z,9.43
2022-09-11T01:24:56.372Z,8.40
2022-09-11T01:27:48.143Z,8.27
2022-09-11T01:30:18.631Z,8.03
2022-09-11T01:33:08.243Z,7.53
2022-09-11T01:35:43.113Z,7.90
2022-09-11T01:38:17.976Z,10.10
2022-09-11T01:40:53.781Z,9.50
2022-09-11T01:43:27.028Z,9.27
2022-09-11T01:45:57.428Z,9.70
2022-09-11T01:48:29.858Z,9.30
2022-09-11T01:51:00.940Z,8.87
2022-09-11T01:53:33.892Z,9.60
2022-09-11T01:56:08.652Z,8.67
2022-09-11T01:58:38.676Z,8.27
2022-09-11T02:01:12.137Z,9.30
2022-09-11T02:03:43.424Z,11.67
2022-09-11T02:06:16.412Z,8.83
2022-09-11T02:08:49.065Z,9.00
2022-09-11T02:11:17.652Z,8.80
2022-09-11T02:13:55.124Z,9.03
2022-09-11T02:16:35.385Z,9.73
2022-09-11T02:19:06.090Z,11.27
2022-09-11T02:21:35.634Z,9.53
2022-09-11T02:24:04.449Z,9.77
2022-09-11T02:26:36.147Z,10.03
2022-09-11T02:29:05.635Z,11.37
2022-09-11T02:31:34.229Z,10.00
2022-09-11T02:34:02.046Z,10.17
2022-09-11T02:36:41.983Z,10.10
2022-09-11T02:39:28.592Z,10.17
2022-09-11T02:42:15.855Z,12.23
2022-09-11T02:44:52.957Z,10.90
2022-09-11T02:47:35.388Z,10.87
2022-09-11T02:50:11.433Z,10.80
2022-09-11T02:52:49.060Z,11.00
2022-09-11T02:55:25.747Z,11.03
2022-09-11T02:58:02.412Z,12.70
2022-09-11T03:00:31.509Z,11.23
2022-09-11T03:03:00.000Z,12.00
2022-09-11T03:05:29.187Z,12.27
2022-09-11T03:07:57.679Z,12.67
2022-09-11T03:10:27.619Z,12.43
2022-09-11T03:12:55.719Z,12.60
2022-09-11T03:15:23.571Z,12.90
2022-09-11T03:17:52.711Z,12.60
2022-09-11T03:20:21.866Z,12.90
2022-09-11T03:22:59.084Z,12.23
2022-09-11T03:25:27.989Z,13.40
2022-09-11T03:27:55.971Z,12.47
2022-09-11T03:30:23.727Z,12.53
2022-09-11T03:32:53.178Z,12.73
2022-09-11T03:35:21.752Z,13.73
2022-09-11T03:37:50.332Z,13.20
2022-09-11T03:40:20.281Z,13.70
2022-09-11T03:42:48.087Z,12.33
2022-09-11T03:45:16.184Z,12.50
2022-09-11T03:47:43.976Z,12.67
2022-09-11T03:50:13.912Z,14.17
2022-09-11T03:52:42.985Z,14.67
2022-09-11T03:55:11.317Z,12.80
2022-09-11T03:57:39.589Z,12.97
2022-09-11T04:00:08.596Z,13.97
2022-09-11T04:02:36.321Z,13.70
2022-09-11T04:05:04.417Z,14.87
2022-09-11T04:07:34.510Z,14.37
2022-09-11T04:10:02.298Z,14.60
2022-09-11T04:12:30.038Z,14.97
2022-09-11T04:14:58.008Z,14.13
2022-09-11T04:17:25.756Z,14.30
2022-09-11T04:19:53.534Z,16.00
2022-09-11T04:22:21.304Z,16.10
2022-09-11T04:24:50.400Z,15.50
2022-09-11T04:27:18.358Z,14.83
2022-09-11T04:29:46.104Z,15.43
2022-09-11T04:32:14.091Z,15.90
2022-09-11T04:34:42.208Z,14.43
2022-09-11T04:37:10.171Z,15.23
2022-09-11T04:39:38.007Z,14.70
2022-09-11T04:42:10.409Z,16.53
2022-09-11T04:44:39.096Z,15.30
2022-09-11T04:47:06.965Z,15.00
2022-09-11T04:49:35.196Z,14.93
2022-09-11T04:52:07.186Z,14.73
2022-09-11T04:54:35.490Z,16.13
2022-09-11T04:57:03.755Z,16.03
2022-09-11T04:59:33.210Z,15.53
2022-09-11T05:02:00.972Z,14.50
2022-09-11T05:04:28.753Z,15.17
2022-09-11T05:06:56.667Z,15.87
2022-09-11T05:09:24.495Z,15.60
2022-09-11T05:11:52.243Z,16.30
2022-09-11T05:14:19.987Z,15.27
2022-09-11T05:16:49.106Z,15.97
2022-09-11T05:19:16.868Z,16.00
2022-09-11T05:21:44.662Z,15.53
2022-09-11T05:24:12.445Z,17.00
2022-09-11T05:26:40.228Z,14.93
2022-09-11T05:29:11.739Z,15.73
2022-09-11T05:31:39.772Z,15.00
2022-09-11T05:34:09.067Z,15.67
2022-09-11T05:36:36.922Z,14.83
2022-09-11T05:39:05.260Z,16.10
2022-09-11T05:41:33.205Z,17.77
2022-09-11T05:44:00.958Z,16.90
2022-09-11T05:46:29.002Z,17.30
2022-09-11T05:48:56.746Z,17.03
2022-09-11T05:51:25.899Z,18.27
2022-09-11T05:53:54.598Z,19.67
2022-09-11T05:56:24.494Z,19.57
2022-09-11T05:58:52.741Z,18.90
2022-09-11T06:01:22.455Z,20.50
2022-09-11T06:03:50.964Z,20.17
2022-09-11T06:06:20.216Z,19.43
2022-09-11T06:08:49.996Z,20.10
2022-09-11T06:11:19.573Z,19.20
2022-09-11T06:13:48.280Z,19.17
2022-09-11T06:16:18.761Z,19.47
2022-09-11T06:18:49.291Z,18.77
2022-09-11T06:21:19.070Z,18.73
2022-09-11T06:23:47.631Z,17.77
2022-09-11T06:26:18.670Z,19.57
2022-09-11T06:28:47.567Z,19.70
2022-09-11T06:31:17.213Z,21.23
2022-09-11T06:33:45.874Z,19.97
2022-09-11T06:36:15.736Z,20.23
2022-09-11T06:38:44.294Z,21.47
2022-09-11T06:41:14.888Z,21.20
2022-09-11T06:43:45.088Z,22.10
2022-09-11T06:46:14.387Z,20.63
2022-09-11T06:48:43.271Z,21.17
2022-09-11T06:51:12.725Z,21.47
2022-09-11T06:53:41.054Z,22.97
2022-09-11T06:56:12.231Z,24.93
2022-09-11T06:58:41.123Z,22.37
2022-09-11T07:01:13.401Z,27.10
2022-09-11T07:03:44.971Z,23.10
2022-09-11T07:06:13.275Z,24.93
2022-09-11T07:08:41.176Z,23.27
2022-09-11T07:11:11.342Z,23.23
2022-09-11T07:13:40.281Z,23.40
2022-09-11T07:16:10.862Z,21.53
2022-09-11T07:18:40.611Z,21.13
2022-09-11T07:21:09.308Z,20.37
2022-09-11T07:23:37.132Z,20.17
2022-09-11T07:26:05.984Z,18.33
2022-09-11T07:28:33.783Z,17.97
2022-09-11T07:31:11.601Z,16.40
2022-09-11T07:33:40.278Z,17.77
2022-09-11T07:36:12.123Z,15.00
2022-09-11T07:38:41.623Z,13.93
2022-09-11T07:41:10.605Z,12.07
2022-09-11T07:43:39.359Z,12.97
2022-09-11T07:46:07.505Z,13.70
2022-09-11T07:48:37.084Z,13.33
2022-09-11T07:51:07.260Z,12.33
2022-09-11T07:53:37.303Z,7.47
2022-09-11T07:56:06.630Z,6.40
2022-09-11T07:58:35.894Z,5.97
2022-09-11T08:01:05.218Z,8.00
2022-09-11T08:03:34.271Z,6.73
2022-09-11T08:06:05.259Z,6.87
2022-09-11T08:08:33.700Z,9.47
2022-09-11T08:11:04.592Z,8.50
2022-09-11T08:13:32.313Z,9.93
2022-09-11T08:16:00.335Z,7.87
2022-09-11T08:18:28.521Z,6.27
2022-09-11T08:21:04.399Z,7.57
2022-09-11T08:23:33.235Z,5.13
2022-09-11T08:26:08.299Z,7.50
2022-09-11T08:28:37.361Z,5.80
2022-09-11T08:31:06.414Z,5.97
2022-09-11T08:33:34.922Z,7.33
2022-09-11T08:36:06.283Z,6.37
2022-09-11T08:38:34.224Z,5.23
2022-09-11T08:41:12.959Z,9.07
2022-09-11T08:43:48.056Z,6.23
2022-09-11T08:46:16.955Z,6.40
2022-09-11T08:48:50.973Z,5.40
2022-09-11T08:51:20.511Z,4.77
2022-09-11T08:53:48.880Z,6.23
2022-09-11T08:56:22.287Z,5.40
2022-09-11T08:59:09.667Z,6.53
2022-09-11T09:01:47.097Z,5.47
2022-09-11T09:04:35.355Z,6.00
2022-09-11T09:07:12.228Z,4.47
2022-09-11T09:09:51.577Z,5.05
2022-09-11T09:12:27.892Z,5.27
2022-09-11T09:15:16.967Z,5.13
2022-09-11T09:17:50.780Z,3.40
2022-09-11T09:20:22.537Z,4.13
2022-09-11T09:25:48.811Z,3.87
2022-09-11T09:28:21.860Z,5.90
2022-09-11T09:30:55.034Z,4.07
2022-09-11T09:33:30.717Z,4.60
2022-09-11T09:36:11.264Z,2.78
2022-09-11T09:38:39.103Z,2.80
2022-09-11T09:41:37.067Z,5.95
2022-09-11T09:44:10.869Z,4.88
2022-09-11T09:46:46.411Z,6.03
2022-09-11T09:49:23.114Z,6.20
2022-09-11T09:51:51.551Z,4.93
2022-09-11T09:54:22.799Z,4.82
2022-09-11T09:56:59.713Z,3.03
2022-09-11T09:59:35.107Z,5.17
2022-09-11T10:02:02.995Z,7.47
2022-09-11T10:04:31.215Z,4.60
2022-09-11T10:07:11.360Z,5.05
2022-09-11T10:09:48.187Z,3.63
2022-09-11T10:12:21.142Z,4.18
2022-09-11T10:14:53.254Z,3.78
2022-09-11T10:17:23.177Z,5.17
2022-09-11T10:19:54.607Z,3.38
2022-09-11T10:22:28.379Z,5.05
2022-09-11T10:25:02.728Z,4.90
2022-09-11T10:27:36.021Z,4.27
2022-09-11T10:30:04.364Z,4.47
2022-09-11T10:32:33.320Z,4.80
2022-09-11T10:35:01.179Z,3.15
2022-09-11T10:37:30.763Z,5.28
2022-09-11T10:40:06.693Z,4.68
2022-09-11T10:42:37.784Z,4.18
2022-09-11T10:45:12.488Z,5.57
2022-09-11T10:47:40.234Z,3.05
2022-09-11T10:50:23.936Z,5.00
2022-09-11T10:53:06.656Z,5.43
2022-09-11T10:55:38.732Z,4.32
2022-09-11T10:58:11.955Z,3.40
2022-09-11T11:00:40.038Z,3.60
2022-09-11T11:03:16.591Z,4.93
2022-09-11T11:05:52.748Z,4.68
2022-09-11T11:08:46.279Z,4.63
2022-09-11T11:11:24.257Z,4.72
2022-09-11T11:14:15.948Z,3.75
2022-09-11T11:16:56.090Z,4.25
2022-09-11T11:19:40.936Z,3.38
2022-09-11T11:22:24.443Z,4.68
2022-09-11T11:25:05.869Z,3.60
2022-09-11T11:27:53.263Z,3.05
2022-09-11T11:30:25.553Z,3.03
2022-09-11T11:33:13.425Z,2.30
2022-09-11T11:35:46.954Z,4.43
2022-09-11T11:38:20.356Z,2.25
2022-09-11T11:40:53.402Z,2.38
2022-09-11T11:43:25.387Z,3.03
2022-09-11T11:45:58.546Z,4.25
2022-09-11T11:48:31.286Z,3.45
2022-09-11T11:51:03.827Z,2.67
2022-09-11T11:53:38.273Z,3.17
2022-09-11T11:56:14.777Z,3.83
2022-09-11T11:58:50.156Z,3.60
2022-09-11T12:01:25.213Z,2.83
2022-09-11T12:04:05.892Z,2.13
2022-09-11T12:06:33.639Z,3.80
2022-09-11T12:09:09.260Z,3.50
2022-09-11T12:11:37.752Z,3.58
2022-09-11T12:14:07.145Z,5.03
2022-09-11T12:16:37.704Z,3.58
2022-09-11T12:19:15.515Z,3.42
2022-09-11T12:21:59.639Z,2.95
2022-09-11T12:24:54.901Z,4.45
2022-09-11T12:27:53.965Z,3.47
2022-09-11T12:30:24.229Z,3.13
2022-09-11T12:32:54.867Z,2.97
2022-09-11T12:35:45.151Z,3.70
2022-09-11T12:38:22.525Z,5.25
2022-09-11T12:40:56.333Z,4.60
2022-09-11T12:43:46.880Z,3.70
2022-09-11T12:46:53.068Z,3.95
2022-09-11T12:49:23.997Z,2.72
2022-09-11T12:51:54.175Z,2.92
2022-09-11T12:54:25.227Z,3.25
2022-09-11T12:57:01.763Z,1.83
2022-09-11T12:59:32.883Z,7.15
2022-09-11T13:02:01.629Z,3.40
2022-09-11T13:04:32.131Z,5.32
2022-09-11T13:07:04.082Z,3.47
2022-09-11T13:09:34.388Z,3.08
2022-09-11T13:12:31.913Z,2.50
2022-09-11T13:15:00.764Z,3.67
2022-09-11T13:17:31.103Z,4.38
2022-09-11T13:20:21.599Z,4.22
2022-09-11T13:22:54.819Z,3.00
2022-09-11T13:25:27.816Z,2.75
2022-09-11T13:27:58.021Z,2.83
2022-09-11T13:30:26.922Z,3.35
2022-09-11T13:33:06.388Z,4.47
2022-09-11T13:35:40.232Z,3.25
2022-09-11T13:38:11.851Z,3.85
2022-09-11T13:40:45.988Z,3.05
2022-09-11T13:43:18.940Z,3.92
2022-09-11T13:45:47.487Z,3.70
2022-09-11T13:48:21.510Z,3.15
2022-09-11T13:50:51.963Z,2.17
2022-09-11T13:53:21.107Z,3.30
2022-09-11T13:55:50.123Z,2.08
2022-09-11T13:58:24.157Z,2.65
2022-09-11T14:00:54.135Z,2.65
2022-09-11T14:03:27.831Z,3.67
2022-09-11T14:05:59.449Z,4.50
2022-09-11T14:08:32.568Z,5.22
2022-09-11T14:11:06.258Z,3.70
2022-09-11T14:13:43.373Z,4.13
2022-09-11T14:16:22.835Z,5.47
2022-09-11T14:18:53.453Z,2.85
2022-09-11T14:21:24.187Z,3.13
2022-09-11T14:23:54.443Z,4.38
2022-09-11T14:26:24.163Z,3.58
2022-09-11T14:29:05.041Z,3.17
2022-09-11T14:31:37.547Z,2.40
2022-09-11T14:34:17.814Z,2.92
2022-09-11T14:36:53.664Z,4.70
2022-09-11T14:39:32.372Z,5.25
2022-09-11T14:42:00.979Z,1.75
2022-09-11T14:44:30.138Z,4.03
2022-09-11T14:46:59.143Z,3.90
2022-09-11T14:49:27.047Z,4.53
2022-09-11T14:51:59.060Z,4.25
2022-09-11T14:54:30.896Z,5.07
2022-09-11T14:56:59.326Z,3.00
2022-09-11T14:59:29.091Z,3.55
2022-09-11T15:01:58.474Z,2.25
2022-09-11T15:04:27.316Z,4.32
2022-09-11T15:06:57.210Z,3.50
2022-09-11T15:09:25.742Z,5.30
2022-09-11T15:11:53.546Z,2.53
2022-09-11T15:14:44.619Z,2.42
2022-09-11T15:17:11.663Z,8.40
2022-09-11T15:19:39.427Z,4.55
2022-09-11T15:22:09.444Z,4.57
2022-09-11T15:24:37.168Z,3.58
2022-09-11T15:27:05.592Z,3.20
2022-09-11T15:29:34.431Z,3.30
2022-09-11T15:32:03.337Z,2.72
2022-09-11T15:34:32.420Z,3.05
2022-09-11T15:37:00.373Z,3.22
2022-09-11T15:39:30.090Z,3.75
2022-09-11T15:41:57.902Z,2.50
2022-09-11T15:44:28.659Z,2.08
2022-09-11T15:46:58.313Z,3.13
2022-09-11T15:49:28.389Z,2.90
2022-09-11T15:51:57.784Z,3.58
2022-09-11T15:54:26.243Z,2.22
2022-09-11T15:56:55.608Z,3.35
2022-09-11T15:59:23.637Z,3.42
2022-09-11T16:01:51.449Z,6.00
2022-09-11T16:04:21.794Z,3.90
2022-09-11T16:06:50.190Z,3.63
2022-09-11T16:09:20.643Z,3.70
2022-09-11T16:11:50.256Z,4.90
2022-09-11T16:14:21.026Z,2.60
2022-09-11T16:16:48.767Z,2.20
2022-09-11T16:19:17.440Z,2.03
2022-09-11T16:21:45.500Z,2.85
2022-09-11T16:24:15.393Z,4.43
2022-09-11T16:26:43.983Z,4.10
2022-09-11T16:29:14.746Z,2.10
2022-09-11T16:31:43.891Z,8.13
2022-09-11T16:34:12.271Z,4.95
2022-09-11T16:36:40.318Z,4.90
2022-09-11T16:39:08.990Z,4.05
2022-09-11T16:41:37.707Z,4.50
2022-09-11T16:44:06.912Z,3.97
2022-09-11T16:46:35.292Z,3.33
2022-09-11T16:49:05.979Z,2.78
2022-09-11T16:51:34.327Z,4.07
2022-09-11T16:54:03.484Z,2.90
2022-09-11T16:56:31.389Z,4.18
2022-09-11T16:59:02.148Z,5.88
2022-09-11T17:01:30.103Z,4.22
2022-09-11T17:03:58.733Z,5.43
2022-09-11T17:06:29.843Z,4.40
2022-09-11T17:09:00.080Z,4.40
2022-09-11T17:11:29.304Z,6.47
2022-09-11T17:13:57.063Z,3.72
2022-09-11T17:16:29.541Z,8.20
2022-09-11T17:18:58.371Z,8.75
2022-09-11T17:21:28.147Z,7.55
2022-09-11T17:23:57.636Z,4.78
2022-09-11T17:26:25.655Z,4.65
2022-09-11T17:28:55.413Z,4.13
2022-09-11T17:31:23.483Z,3.90
2022-09-11T17:33:51.291Z,4.50
2022-09-11T17:36:21.331Z,3.72
2022-09-11T17:38:52.510Z,4.10
2022-09-11T17:41:21.792Z,3.88
2022-09-11T17:43:50.392Z,3.08
2022-09-11T17:46:20.958Z,5.60
2022-09-11T17:48:49.415Z,2.80
2022-09-11T17:51:19.963Z,3.05
2022-09-11T17:53:51.047Z,4.35
2022-09-11T17:56:20.086Z,2.90
2022-09-11T17:58:51.406Z,2.55
2022-09-11T18:01:19.535Z,3.47
2022-09-11T18:03:52.490Z,3.90
2022-09-11T18:06:23.291Z,3.08
2022-09-11T18:08:52.952Z,3.92
2022-09-11T18:11:20.730Z,3.80
2022-09-11T18:13:49.032Z,5.95
2022-09-11T18:16:17.724Z,3.42
2022-09-11T18:18:45.526Z,5.65
2022-09-11T18:21:13.495Z,4.57
2022-09-11T18:23:42.921Z,4.30
2022-09-11T18:26:21.933Z,4.20
2022-09-11T18:28:50.235Z,8.48
2022-09-11T18:31:19.171Z,5.03
2022-09-11T18:33:54.565Z,4.95
2022-09-11T18:36:23.438Z,5.95
2022-09-11T18:38:51.548Z,6.15
2022-09-11T18:41:21.743Z,4.25
2022-09-11T18:43:49.572Z,4.57
2022-09-11T18:46:17.804Z,5.93
2022-09-11T18:48:46.313Z,5.35
2022-09-11T18:51:19.472Z,5.32
2022-09-11T18:53:51.809Z,5.40
2022-09-11T18:56:22.616Z,4.35
2022-09-11T18:58:52.185Z,4.85
2022-09-11T19:01:22.636Z,8.13
2022-09-11T19:03:51.842Z,7.40
2022-09-11T19:06:21.518Z,7.22
2022-09-11T19:08:51.114Z,6.75
2022-09-11T19:11:22.031Z,6.32
2022-09-11T19:13:51.279Z,5.18
2022-09-11T19:16:20.111Z,5.65
2022-09-11T19:18:48.664Z,8.75
2022-09-11T19:21:18.252Z,6.45
2022-09-11T19:23:48.376Z,6.28
2022-09-11T19:26:18.056Z,5.65
2022-09-11T19:28:47.548Z,5.90
2022-09-11T19:31:16.968Z,6.95
2022-09-11T19:33:45.308Z,10.80
2022-09-11T19:36:16.691Z,6.93
2022-09-11T19:38:45.853Z,6.70
2022-09-11T19:41:15.314Z,5.47
2022-09-11T19:43:44.359Z,4.70
2022-09-11T19:46:15.595Z,8.52
2022-09-11T19:48:44.240Z,4.97
2022-09-11T19:51:13.875Z,6.03
2022-09-11T19:53:42.124Z,5.18
2022-09-11T19:56:11.268Z,8.52
2022-09-11T19:58:39.731Z,10.32
2022-09-11T20:01:09.937Z,7.75
2022-09-11T20:03:40.054Z,6.30
2022-09-11T20:06:08.444Z,8.00
2022-09-11T20:08:38.100Z,7.18
2022-09-11T20:11:07.999Z,7.07
2022-09-11T20:13:36.539Z,9.05
2022-09-11T20:16:05.217Z,7.25
2022-09-11T20:18:33.063Z,7.93
2022-09-11T20:21:03.863Z,11.23
2022-09-11T20:23:32.202Z,5.97
2022-09-11T20:26:11.551Z,5.78
2022-09-11T20:28:41.808Z,5.88
2022-09-11T20:31:14.233Z,7.03
2022-09-11T20:33:43.131Z,5.68
2022-09-11T20:36:12.899Z,7.25
2022-09-11T20:38:40.797Z,6.95
2022-09-11T20:41:09.417Z,5.80
2022-09-11T20:43:37.282Z,8.70
2022-09-11T20:46:05.123Z,5.75
2022-09-11T20:48:32.912Z,5.85
2022-09-11T20:51:04.098Z,6.68
2022-09-11T20:53:33.172Z,6.68
2022-09-11T20:56:03.021Z,9.45
2022-09-11T20:58:31.185Z,6.70
2022-09-11T21:01:00.629Z,7.90
2022-09-11T21:03:29.384Z,7.03
2022-09-11T21:05:57.351Z,7.65
2022-09-11T21:08:26.813Z,9.32
2022-09-11T21:10:55.884Z,7.45
2022-09-11T21:13:23.610Z,8.30
2022-09-11T21:15:51.662Z,10.02
2022-09-11T21:18:19.455Z,8.10
2022-09-11T21:20:54.810Z,7.50
2022-09-11T21:23:22.705Z,8.77
2022-09-11T21:25:52.708Z,7.22
2022-09-11T21:28:22.379Z,7.07
2022-09-11T21:30:50.333Z,7.18
2022-09-11T21:33:18.158Z,7.40
2022-09-11T21:35:52.400Z,6.97
2022-09-11T21:38:21.111Z,8.02
2022-09-11T21:40:48.972Z,8.70
2022-09-11T21:43:16.933Z,7.95
2022-09-11T21:45:46.161Z,8.45
2022-09-11T21:48:14.151Z,8.10
2022-09-11T21:50:42.154Z,8.63
2022-09-11T21:53:11.592Z,8.53
2022-09-11T21:55:40.408Z,8.73
2022-09-11T21:58:09.310Z,8.13
2022-09-11T22:00:42.550Z,10.50
2022-09-11T22:03:12.883Z,7.80
2022-09-11T22:05:43.124Z,8.47
2022-09-11T22:08:11.650Z,8.38
2022-09-11T22:10:42.994Z,8.73
2022-09-11T22:13:11.222Z,8.50
2022-09-11T22:15:41.003Z,9.90
2022-09-11T22:18:08.965Z,10.07
2022-09-11T22:20:39.206Z,9.55
2022-09-11T22:23:07.252Z,11.23
2022-09-11T22:25:36.799Z,9.67
2022-09-11T22:28:05.204Z,9.50
2022-09-11T22:30:33.393Z,10.20
2022-09-11T22:33:01.599Z,10.70
2022-09-11T22:35:29.709Z,9.47
2022-09-11T22:37:58.907Z,9.90
2022-09-11T22:40:26.743Z,10.70
2022-09-11T22:42:54.517Z,10.97
2022-09-11T22:45:22.318Z,10.53
2022-09-11T22:47:50.118Z,10.30
2022-09-11T22:50:18.523Z,10.70
2022-09-11T22:52:46.323Z,10.32
2022-09-11T22:55:15.863Z,10.57
2022-09-11T22:57:43.637Z,11.10
2022-09-11T23:00:14.486Z,10.77
2022-09-11T23:02:42.501Z,10.23
2022-09-11T23:05:28.134Z,11.20
2022-09-11T23:07:55.945Z,10.27
2022-09-11T23:10:25.477Z,10.52
2022-09-11T23:12:53.621Z,10.53
2022-09-11T23:15:22.200Z,10.77
2022-09-11T23:17:50.041Z,11.07
2022-09-11T23:20:18.293Z,10.57
2022-09-11T23:22:46.044Z,10.30
2022-09-11T23:25:14.792Z,13.00
2022-09-11T23:27:44.991Z,11.13
2022-09-11T23:30:13.232Z,11.87
2022-09-11T23:32:42.012Z,11.13
2022-09-11T23:35:10.789Z,10.60
2022-09-11T23:37:43.507Z,10.63
2022-09-11T23:40:13.187Z,11.20
2022-09-11T23:42:41.080Z,10.67
2022-09-11T23:45:12.658Z,10.75
2022-09-11T23:47:40.489Z,11.10
2022-09-11T23:50:09.446Z,10.90
2022-09-11T23:52:39.381Z,11.23
2022-09-11T23:55:08.052Z,11.33
2022-09-11T23:57:35.864Z,11.57
